Time;durP1;ratioP1;P1;durP2;ratioP2;P2;SDS_P1;SDS_P2;PMS_P1;PMS_P2;Temp;Humidity;BMP_temperature;BMP_pressure;BME280_temperature;BME280_humidity;BME280_pressure;Samples;Min_cycle;Max_cycle;Signal;HPM_P1;HPM_P2
2022/08/15 00:00:12;;;;;;;13.82;8.23;;;;;;;21.76;55.47;99918.63;6174391;23;20059;-67
2022/08/15 00:02:41;;;;;;;19.40;8.80;;;;;;;21.69;55.65;99923.88;6206780;22;20364;-68
2022/08/15 00:05:06;;;;;;;17.80;9.73;;;;;;;21.61;55.87;99929.34;6179142;22;20454;-69
2022/08/15 00:07:30;;;;;;;12.00;8.25;;;;;;;21.56;56.14;99923.56;6231689;22;20508;-71
2022/08/15 00:09:55;;;;;;;13.65;9.05;;;;;;;21.52;55.98;99926.81;6204913;22;20128;-68
2022/08/15 00:12:22;;;;;;;14.02;8.90;;;;;;;21.47;56.16;99929.19;6204475;22;20097;-68
2022/08/15 00:14:46;;;;;;;15.02;9.50;;;;;;;21.41;56.34;99936.16;6231700;22;20397;-68
2022/08/15 00:17:11;;;;;;;19.60;9.27;;;;;;;21.35;56.74;99926.84;6231863;22;20323;-68
2022/08/15 00:19:44;;;;;;;12.25;8.07;;;;;;;21.34;57.06;99933.28;6204744;22;20508;-69
2022/08/15 00:22:09;;;;;;;14.82;9.15;;;;;;;21.29;57.46;99932.94;6232667;22;20046;-69
2022/08/15 00:24:36;;;;;;;13.82;8.85;;;;;;;21.28;57.62;99931.25;6179420;22;20050;-69
2022/08/15 00:27:04;;;;;;;11.48;9.02;;;;;;;21.27;57.41;99935.00;6204438;22;20458;-68
2022/08/15 00:29:31;;;;;;;14.65;8.88;;;;;;;21.26;57.30;99936.00;6204520;22;20016;-71
2022/08/15 00:31:56;;;;;;;15.35;8.63;;;;;;;21.22;57.54;99925.69;6231500;22;20073;-68
2022/08/15 00:34:22;;;;;;;15.95;9.35;;;;;;;21.21;57.81;99941.09;6202869;22;20091;-69
2022/08/15 00:36:48;;;;;;;10.63;8.27;;;;;;;21.18;57.81;99937.84;6203253;22;20455;-69
2022/08/15 00:39:13;;;;;;;11.82;8.52;;;;;;;21.16;58.12;99938.00;6203269;22;20022;-67
2022/08/15 00:41:41;;;;;;;12.90;8.40;;;;;;;21.16;58.31;99937.16;6177646;22;20011;-68
2022/08/15 00:44:20;;;;;;;12.32;8.98;;;;;;;21.15;57.85;99947.16;6230162;22;20031;-66
2022/08/15 00:46:53;;;;;;;12.68;8.70;;;;;;;21.14;57.86;99942.75;6177861;22;20394;-68
2022/08/15 00:49:18;;;;;;;16.98;9.82;;;;;;;21.10;57.68;99937.84;6203006;22;20022;-69
2022/08/15 00:51:49;;;;;;;13.23;8.55;;;;;;;21.10;58.11;99941.41;6230004;22;20022;-68
2022/08/15 00:54:50;;;;;;;15.32;9.27;;;;;;;21.16;57.79;99943.44;6203046;22;20016;-67
2022/08/15 00:57:21;;;;;;;13.25;8.27;;;;;;;21.08;58.59;99946.16;6203167;22;20015;-67
2022/08/15 00:59:59;;;;;;;11.27;8.70;;;;;;;21.08;58.47;99940.72;6203080;22;20046;-66
2022/08/15 01:02:30;;;;;;;19.55;9.77;;;;;;;20.97;58.71;99944.63;6202955;22;20020;-67
2022/08/15 01:04:56;;;;;;;13.38;8.98;;;;;;;20.92;59.04;99946.13;6202938;22;20050;-67
2022/08/15 01:07:22;;;;;;;11.13;8.45;;;;;;;20.87;59.41;99953.94;6177533;22;20039;-67
2022/08/15 01:09:49;;;;;;;12.95;8.27;;;;;;;20.84;59.40;99949.69;6177849;22;20206;-68
2022/08/15 01:12:17;;;;;;;12.85;8.18;;;;;;;20.84;59.70;99956.97;6177774;22;20019;-69
2022/08/15 01:15:09;;;;;;;12.02;7.82;;;;;;;20.83;59.67;99958.00;6177488;22;20056;-68
2022/08/15 01:17:34;;;;;;;12.52;8.02;;;;;;;20.75;59.94;99955.28;6201463;22;20359;-68
2022/08/15 01:20:11;;;;;;;14.23;9.55;;;;;;;20.71;59.90;99964.75;6202795;22;20020;-68
2022/08/15 01:22:56;;;;;;;14.15;9.75;;;;;;;20.74;59.89;99959.84;6202632;22;20020;-68
2022/08/15 01:25:27;;;;;;;11.80;8.60;;;;;;;20.69;60.38;99962.19;6202737;22;20099;-67
2022/08/15 01:27:59;;;;;;;13.10;8.57;;;;;;;20.65;60.43;99958.16;6200773;22;20046;-67
2022/08/15 01:30:29;;;;;;;13.05;10.40;;;;;;;20.62;59.19;99959.31;6176073;22;20351;-66
2022/08/15 01:32:55;;;;;;;17.52;11.10;;;;;;;20.61;58.46;99960.34;6229555;22;20084;-71
2022/08/15 01:35:20;;;;;;;12.93;10.38;;;;;;;20.59;59.41;99956.09;6196141;22;20027;-67
2022/08/15 01:37:45;;;;;;;12.57;9.52;;;;;;;20.61;58.34;99963.03;6173290;22;20016;-69
2022/08/15 01:40:28;;;;;;;13.98;9.60;;;;;;;20.66;58.45;99963.38;6174530;22;20584;-68
2022/08/15 01:42:55;;;;;;;16.92;10.57;;;;;;;20.60;58.30;99961.34;6150084;22;20455;-69
2022/08/15 01:45:23;;;;;;;16.08;11.05;;;;;;;20.61;58.32;99959.47;6200331;22;20409;-72
2022/08/15 01:48:07;;;;;;;19.05;11.65;;;;;;;20.60;58.48;99969.47;6201906;22;20446;-67
2022/08/15 01:50:42;;;;;;;16.08;9.98;;;;;;;20.62;59.09;99972.88;6202128;22;20019;-66
2022/08/15 01:53:18;;;;;;;15.15;9.27;;;;;;;20.62;59.27;99975.56;6228725;22;20019;-66
2022/08/15 01:55:59;;;;;;;19.38;11.52;;;;;;;20.58;58.38;99979.63;6202600;22;20019;-66
2022/08/15 01:58:28;;;;;;;17.33;10.50;;;;;;;20.53;58.81;99964.91;6178095;22;20012;-66
2022/08/15 02:01:00;;;;;;;17.50;11.50;;;;;;;20.54;58.28;99967.41;6202617;22;20482;-72
2022/08/15 02:03:35;;;;;;;19.17;10.55;;;;;;;20.52;59.46;99971.31;6171861;23;20047;-71
2022/08/15 02:06:16;;;;;;;14.07;10.38;;;;;;;20.52;59.65;99974.03;6197357;23;20020;-63
2022/08/15 02:08:43;;;;;;;20.10;12.88;;;;;;;20.45;58.60;99968.41;6197438;23;20625;-63
2022/08/15 02:11:12;;;;;;;24.00;12.32;;;;;;;20.48;59.12;99976.22;6197204;23;20095;-62
2022/08/15 02:13:41;;;;;;;17.05;12.00;;;;;;;20.49;59.46;99972.50;6197577;23;20019;-63
2022/08/15 02:16:06;;;;;;;22.52;12.68;;;;;;;20.49;58.96;99975.19;6197380;23;20012;-71
2022/08/15 02:18:31;;;;;;;14.40;10.02;;;;;;;20.49;60.18;99977.91;6197454;23;20031;-63
2022/08/15 02:20:57;;;;;;;20.85;13.43;;;;;;;20.46;59.10;99978.22;6172963;23;20016;-75
2022/08/15 02:23:22;;;;;;;16.15;11.82;;;;;;;20.50;59.59;99979.59;6199106;23;20351;-71
2022/08/15 02:25:48;;;;;;;19.10;11.15;;;;;;;20.49;59.71;99985.19;6171921;23;20411;-71
2022/08/15 02:28:13;;;;;;;20.05;13.00;;;;;;;20.46;60.45;99980.09;6172232;23;20328;-74
2022/08/15 02:30:39;;;;;;;16.10;11.57;;;;;;;20.47;60.22;99982.63;6197573;23;20095;-71
2022/08/15 02:33:04;;;;;;;24.13;12.35;;;;;;;20.47;59.86;99979.94;6197863;23;20040;-71
2022/08/15 02:35:30;;;;;;;25.20;14.20;;;;;;;20.47;59.86;99979.06;6197379;23;20016;-71
2022/08/15 02:38:01;;;;;;;18.42;12.32;;;;;;;20.48;59.89;99987.03;6197969;23;20515;-76
2022/08/15 02:40:28;;;;;;;14.82;10.23;;;;;;;20.46;60.64;99989.06;6148309;23;20016;-73
2022/08/15 02:42:53;;;;;;;21.70;12.98;;;;;;;20.46;60.08;99985.50;6198396;23;20430;-68
2022/08/15 02:45:18;;;;;;;18.92;13.63;;;;;;;20.48;59.50;99987.03;6197748;23;20324;-68
2022/08/15 02:47:45;;;;;;;15.63;11.85;;;;;;;20.50;60.46;99989.59;6171835;23;20012;-67
2022/08/15 02:50:14;;;;;;;16.85;11.43;;;;;;;20.53;60.20;99998.25;6198721;22;20019;-67
2022/08/15 02:52:44;;;;;;;18.55;10.48;;;;;;;20.57;60.49;99996.03;6197522;23;20081;-68
2022/08/15 02:55:12;;;;;;;25.40;14.52;;;;;;;20.54;60.38;99996.38;6171218;23;20012;-68
2022/08/15 02:57:37;;;;;;;17.50;13.35;;;;;;;20.52;59.93;99999.25;6196978;23;20023;-69
2022/08/15 03:00:15;;;;;;;18.98;13.25;;;;;;;20.55;60.42;100004.31;6171906;23;20047;-67
2022/08/15 03:02:56;;;;;;;23.15;14.18;;;;;;;20.61;60.22;99995.53;6199602;22;20355;-67
2022/08/15 03:05:27;;;;;;;16.20;12.63;;;;;;;20.62;60.85;99999.09;6201744;22;20069;-67
2022/08/15 03:07:52;;;;;;;18.38;12.73;;;;;;;20.70;59.93;100004.53;6176808;22;20246;-67
2022/08/15 03:10:17;;;;;;;24.05;14.95;;;;;;;20.80;59.95;100001.69;6228706;22;20019;-66
2022/08/15 03:12:54;;;;;;;22.25;14.50;;;;;;;20.89;59.71;99996.09;6201699;22;20065;-66
2022/08/15 03:15:32;;;;;;;18.73;13.85;;;;;;;20.93;60.09;100002.03;6201799;22;20022;-66
2022/08/15 03:17:59;;;;;;;19.15;14.07;;;;;;;20.94;60.24;100011.88;6201927;22;20421;-65
2022/08/15 03:20:25;;;;;;;24.80;15.07;;;;;;;20.95;59.94;100006.28;6201979;22;20026;-67
2022/08/15 03:22:52;;;;;;;18.50;14.70;;;;;;;20.98;60.06;100013.25;6176196;22;20019;-66
2022/08/15 03:25:25;;;;;;;21.83;15.38;;;;;;;21.02;59.62;100011.88;6176628;22;20020;-65
2022/08/15 03:27:53;;;;;;;24.27;15.38;;;;;;;21.14;59.40;100010.53;6201951;22;20019;-66
2022/08/15 03:30:19;;;;;;;17.33;13.48;;;;;;;21.27;59.69;100005.50;6176406;22;20020;-64
2022/08/15 03:32:56;;;;;;;19.73;15.00;;;;;;;21.43;59.26;100009.22;6201747;22;20020;-66
2022/08/15 03:35:27;;;;;;;21.17;14.75;;;;;;;21.45;57.74;99999.88;6228840;22;20024;-66
2022/08/15 03:37:52;;;;;;;25.90;15.57;;;;;;;21.56;57.92;100006.81;6176346;22;20098;-66
2022/08/15 03:40:17;;;;;;;20.20;14.35;;;;;;;21.65;57.35;99993.09;6228793;22;20115;-66
2022/08/15 03:42:55;;;;;;;23.20;15.40;;;;;;;21.82;56.65;100001.19;6202448;22;20085;-65
2022/08/15 03:45:20;;;;;;;27.33;17.45;;;;;;;21.86;56.48;100000.69;6228723;22;20019;-65
2022/08/15 03:47:45;;;;;;;21.98;16.33;;;;;;;21.95;56.26;100005.06;6228507;22;20062;-65
2022/08/15 03:50:13;;;;;;;28.90;16.95;;;;;;;22.00;55.76;100005.44;6176008;22;20502;-66
2022/08/15 03:52:53;;;;;;;25.02;16.33;;;;;;;22.16;55.37;100012.66;6201781;22;20015;-67
2022/08/15 03:55:18;;;;;;;25.35;16.23;;;;;;;22.20;55.16;99999.59;6201818;22;20462;-67
2022/08/15 03:57:47;;;;;;;24.35;16.13;;;;;;;22.18;55.22;100004.34;6177280;22;20489;-66
2022/08/15 04:00:16;;;;;;;21.58;15.90;;;;;;;22.16;55.64;100004.53;6201717;22;20026;-65
2022/08/15 04:02:44;;;;;;;21.08;16.98;;;;;;;22.25;55.21;100005.31;6201409;22;20015;-65
2022/08/15 04:05:09;;;;;;;20.42;16.23;;;;;;;22.37;55.11;100012.06;6176579;22;20019;-66
2022/08/15 04:07:38;;;;;;;21.42;16.40;;;;;;;22.43;55.06;100003.22;6229430;22;20027;-64
2022/08/15 04:10:06;;;;;;;20.33;15.55;;;;;;;22.53;54.87;100003.00;6203368;22;20039;-65
2022/08/15 04:12:36;;;;;;;19.88;16.13;;;;;;;22.73;54.66;100012.41;6203894;22;20026;-64
2022/08/15 04:15:07;;;;;;;22.75;16.20;;;;;;;23.02;53.85;100009.03;6230690;22;20020;-64
2022/08/15 04:17:34;;;;;;;24.58;16.70;;;;;;;23.21;54.04;100007.69;6203433;22;20019;-64
2022/08/15 04:19:58;;;;;;;24.75;16.33;;;;;;;23.40;53.95;100007.19;6203321;22;20019;-66
2022/08/15 04:22:41;;;;;;;23.80;16.45;;;;;;;23.65;54.25;100013.31;6154142;22;20019;-66
2022/08/15 04:25:11;;;;;;;23.85;15.43;;;;;;;23.81;54.63;100002.25;6203324;22;20462;-66
2022/08/15 04:27:37;;;;;;;19.60;15.30;;;;;;;23.86;55.23;100006.09;6230407;22;20157;-66
2022/08/15 04:30:03;;;;;;;25.25;16.83;;;;;;;23.82;54.38;100007.50;6203356;22;20015;-65
2022/08/15 04:32:28;;;;;;;23.77;17.20;;;;;;;23.79;54.45;100004.31;6177994;22;20020;-67
2022/08/15 04:34:54;;;;;;;20.05;14.10;;;;;;;23.94;53.77;100009.75;6203541;22;20022;-66
2022/08/15 04:37:19;;;;;;;17.85;14.57;;;;;;;24.20;53.57;100000.09;6203731;22;20022;-66
2022/08/15 04:39:48;;;;;;;20.88;15.60;;;;;;;24.55;51.54;100008.56;6178191;22;20134;-67
2022/08/15 04:42:14;;;;;;;20.55;15.02;;;;;;;24.93;50.83;100001.06;6178213;22;20069;-66
2022/08/15 04:44:40;;;;;;;20.23;14.48;;;;;;;25.31;49.78;100001.63;6203375;22;20018;-67
2022/08/15 04:47:05;;;;;;;22.00;15.07;;;;;;;25.65;47.90;100011.84;6203011;22;20023;-65
2022/08/15 04:49:30;;;;;;;19.75;13.63;;;;;;;25.94;48.16;100002.63;6203297;22;20016;-64
2022/08/15 04:51:55;;;;;;;19.33;15.23;;;;;;;26.13;46.99;100004.63;6230258;22;20022;-64
2022/08/15 04:54:22;;;;;;;22.63;14.25;;;;;;;26.27;46.50;100005.53;6177675;22;20043;-64
2022/08/15 04:57:02;;;;;;;16.00;13.13;;;;;;;26.41;45.70;100007.34;6156243;22;20401;-64
2022/08/15 04:59:27;;;;;;;18.08;13.80;;;;;;;26.55;45.74;100006.31;6229821;22;20027;-64
2022/08/15 05:01:52;;;;;;;22.85;13.23;;;;;;;26.75;45.17;100009.13;6203154;22;20096;-65
2022/08/15 05:04:17;;;;;;;20.35;13.40;;;;;;;27.03;45.03;100007.16;6202880;22;20023;-65
2022/08/15 05:06:42;;;;;;;14.70;12.13;;;;;;;27.24;43.79;100011.59;6230422;22;20016;-65
2022/08/15 05:09:06;;;;;;;20.58;13.02;;;;;;;27.41;43.76;100007.41;6203101;22;20031;-64
2022/08/15 05:11:31;;;;;;;16.77;12.57;;;;;;;27.60;42.90;100003.03;6203215;22;20019;-65
2022/08/15 05:13:57;;;;;;;16.35;12.05;;;;;;;27.88;42.17;100011.00;6202745;22;20055;-65
2022/08/15 05:16:28;;;;;;;16.52;11.98;;;;;;;28.12;42.09;100009.47;6175409;22;20043;-64
2022/08/15 05:18:53;;;;;;;16.13;12.45;;;;;;;28.53;41.36;100012.78;6202497;22;20016;-65
2022/08/15 05:21:19;;;;;;;16.80;13.10;;;;;;;28.84;39.75;100006.53;6230001;22;20069;-66
2022/08/15 05:23:44;;;;;;;18.25;12.45;;;;;;;28.78;39.35;100006.59;6202839;22;20015;-65
2022/08/15 05:26:15;;;;;;;14.13;11.93;;;;;;;28.64;40.31;100010.41;6202705;22;20091;-64
2022/08/15 05:28:40;;;;;;;16.20;13.30;;;;;;;28.57;40.60;100009.56;6177545;22;20178;-66
2022/08/15 05:31:11;;;;;;;17.63;11.93;;;;;;;28.72;40.26;100016.47;6177449;22;20027;-68
2022/08/15 05:33:38;;;;;;;15.48;11.57;;;;;;;28.85;40.20;100012.88;6202780;22;20413;-67
2022/08/15 05:36:06;;;;;;;17.08;12.70;;;;;;;29.25;39.56;100014.28;6177462;22;20351;-66
2022/08/15 05:38:37;;;;;;;15.75;12.30;;;;;;;29.65;38.85;100014.03;6202612;22;20149;-64
2022/08/15 05:41:27;;;;;;;17.17;12.85;;;;;;;29.99;38.82;100009.94;6202870;22;20027;-65
2022/08/15 05:44:03;;;;;;;17.65;12.50;;;;;;;30.06;38.10;100012.63;6230192;22;20087;-64
2022/08/15 05:46:39;;;;;;;18.52;13.38;;;;;;;30.21;36.80;99997.44;6202469;22;20026;-65
2022/08/15 05:49:22;;;;;;;24.58;15.43;;;;;;;30.27;37.31;100018.50;6202977;22;20349;-63
2022/08/15 05:52:11;;;;;;;26.58;19.38;;;;;;;30.36;36.30;100002.56;6202803;22;20019;-64
2022/08/15 05:54:47;;;;;;;26.77;19.83;;;;;;;30.78;36.20;100009.06;6202765;22;20039;-65
2022/08/15 05:57:14;;;;;;;27.80;22.67;;;;;;;31.09;34.68;100001.66;6229647;22;20347;-66
2022/08/15 05:59:42;;;;;;;33.95;25.25;;;;;;;31.17;34.00;100010.41;6202541;22;20067;-65
2022/08/15 06:02:13;;;;;;;37.83;28.05;;;;;;;31.21;33.60;99994.25;6177298;22;20463;-67
2022/08/15 06:05:17;;;;;;;35.53;26.40;;;;;;;31.69;33.54;99997.75;6176717;22;20023;-67
2022/08/15 06:07:45;;;;;;;39.35;28.75;;;;;;;31.95;32.65;99993.66;6212655;22;20027;-66
2022/08/15 06:10:25;;;;;;;36.45;29.00;;;;;;;31.76;32.18;99992.09;6152325;22;20012;-68
2022/08/15 06:12:57;;;;;;;32.92;25.90;;;;;;;31.67;33.19;100010.09;6229543;22;20043;-66
2022/08/15 06:15:39;;;;;;;32.35;25.67;;;;;;;31.54;32.48;99999.25;6202498;22;20019;-66
2022/08/15 06:18:09;;;;;;;32.97;24.55;;;;;;;31.46;33.13;100005.13;6176942;22;20020;-67
2022/08/15 06:20:44;;;;;;;30.73;23.98;;;;;;;31.76;32.11;100000.38;6177330;22;20470;-67
2022/08/15 06:23:23;;;;;;;27.75;23.10;;;;;;;32.31;32.05;100008.28;6176872;22;20061;-67
2022/08/15 06:26:06;;;;;;;31.63;24.92;;;;;;;32.91;30.15;100002.41;6202329;22;20463;-67
2022/08/15 06:28:49;;;;;;;28.50;22.75;;;;;;;33.75;29.05;100006.19;6202080;22;20022;-67
2022/08/15 06:31:19;;;;;;;27.80;23.60;;;;;;;34.10;27.13;100009.47;6228965;22;20327;-67
2022/08/15 06:33:55;;;;;;;36.15;25.55;;;;;;;34.23;27.26;100013.78;6202337;22;20396;-67
2022/08/15 06:36:31;;;;;;;34.55;26.75;;;;;;;34.46;26.49;100015.53;6202114;22;20016;-66
2022/08/15 06:39:15;;;;;;;27.80;23.70;;;;;;;35.03;25.95;100012.34;6152061;22;20015;-67
2022/08/15 06:41:58;;;;;;;25.90;22.13;;;;;;;35.20;24.73;100011.16;6177046;22;20328;-67
2022/08/15 06:44:30;;;;;;;25.73;18.67;;;;;;;36.13;23.64;100017.22;6152903;22;20015;-67
2022/08/15 06:47:03;;;;;;;26.02;18.25;;;;;;;36.68;22.64;100018.69;6176748;22;20023;-67
2022/08/15 06:49:32;;;;;;;24.38;17.85;;;;;;;37.15;22.76;100028.81;6176663;22;20447;-68
2022/08/15 06:51:58;;;;;;;26.02;17.45;;;;;;;36.70;22.61;100022.03;6202110;22;20019;-66
2022/08/15 06:54:25;;;;;;;18.80;15.30;;;;;;;35.95;22.97;100018.50;6228993;22;20039;-67
2022/08/15 06:57:05;;;;;;;19.90;15.65;;;;;;;36.15;23.36;100017.81;6202283;22;20020;-66
2022/08/15 06:59:36;;;;;;;24.02;17.10;;;;;;;36.49;23.48;100020.25;6201968;22;20019;-67
2022/08/15 07:02:04;;;;;;;19.05;14.55;;;;;;;36.53;22.63;100018.59;6201908;22;20395;-66
2022/08/15 07:04:33;;;;;;;15.10;11.95;;;;;;;36.65;22.23;100019.22;6201757;22;20046;-67
2022/08/15 07:07:04;;;;;;;17.08;12.05;;;;;;;36.81;22.25;100023.72;6201693;22;20023;-68
2022/08/15 07:09:50;;;;;;;13.90;11.02;;;;;;;36.66;22.01;100024.50;6176468;22;20019;-67
2022/08/15 07:12:35;;;;;;;13.57;11.25;;;;;;;36.78;22.27;100031.81;6186671;22;20019;-68
2022/08/15 07:15:10;;;;;;;13.52;9.35;;;;;;;36.32;21.21;100021.28;6239127;22;20016;-68
2022/08/15 07:17:45;;;;;;;11.68;9.35;;;;;;;36.78;21.51;100027.09;6228767;22;20022;-67
2022/08/15 07:20:11;;;;;;;12.27;9.35;;;;;;;37.89;20.55;100025.63;6176924;22;20489;-68
2022/08/15 07:22:40;;;;;;;11.98;9.85;;;;;;;38.89;19.58;100032.03;6201821;22;20023;-68
2022/08/15 07:25:11;;;;;;;14.10;10.20;;;;;;;39.45;19.12;100029.78;6176456;22;20026;-67
2022/08/15 07:27:37;;;;;;;14.30;11.00;;;;;;;39.81;19.03;100032.28;6151330;22;20467;-67
2022/08/15 07:30:19;;;;;;;11.30;9.77;;;;;;;40.33;17.55;100025.09;6228676;22;20015;-68
2022/08/15 07:32:52;;;;;;;10.85;9.75;;;;;;;40.73;17.91;100026.63;6201831;22;20027;-67
2022/08/15 07:35:25;;;;;;;17.33;10.68;;;;;;;41.14;17.26;100033.34;6201917;22;20023;-67
2022/08/15 07:38:07;;;;;;;14.50;9.85;;;;;;;41.25;17.74;100031.22;6177140;22;20016;-67
2022/08/15 07:40:43;;;;;;;12.20;10.25;;;;;;;40.90;17.59;100030.56;6228898;22;20047;-67
2022/08/15 07:43:32;;;;;;;13.23;10.75;;;;;;;40.64;17.67;100024.44;6203940;22;20116;-67
2022/08/15 07:46:16;;;;;;;11.05;7.97;;;;;;;40.05;17.53;100033.22;6203898;22;20027;-68
2022/08/15 07:48:43;;;;;;;9.85;6.90;;;;;;;39.94;17.58;100022.44;6178251;22;20098;-67
2022/08/15 07:51:27;;;;;;;9.18;7.38;;;;;;;40.44;17.68;100023.84;6204226;22;20090;-65
2022/08/15 07:54:05;;;;;;;7.63;6.78;;;;;;;40.42;16.76;100029.75;6205263;22;20024;-66
2022/08/15 07:56:51;;;;;;;9.73;6.90;;;;;;;40.41;17.03;100028.06;6203945;22;20041;-65
2022/08/15 07:59:23;;;;;;;7.50;6.78;;;;;;;40.41;17.24;100028.06;6178935;22;20525;-65
2022/08/15 08:02:24;;;;;;;7.15;6.53;;;;;;;40.78;16.59;100037.72;6203820;22;20015;-65
2022/08/15 08:04:51;;;;;;;6.65;6.05;;;;;;;39.91;16.89;100030.28;6178554;22;20019;-64
2022/08/15 08:07:36;;;;;;;9.77;6.30;;;;;;;40.24;17.13;100036.06;6203544;22;20020;-66
2022/08/15 08:10:30;;;;;;;8.48;7.53;;;;;;;40.11;17.06;100032.00;6178377;22;20015;-65
2022/08/15 08:13:10;;;;;;;14.80;7.70;;;;;;;40.17;17.20;100035.59;6203421;22;20069;-65
2022/08/15 08:15:36;;;;;;;10.68;7.22;;;;;;;40.31;17.35;100024.56;6203392;22;20011;-66
2022/08/15 08:18:20;;;;;;;8.40;6.95;;;;;;;41.20;17.05;100034.09;6177744;22;20073;-66
2022/08/15 08:21:04;;;;;;;9.77;7.88;;;;;;;41.60;16.17;100027.06;6203333;22;20046;-66
2022/08/15 08:23:44;;;;;;;9.98;8.35;;;;;;;41.90;16.26;100031.28;6203354;22;20015;-66
2022/08/15 08:26:38;;;;;;;8.15;7.35;;;;;;;43.14;14.92;100043.41;6203351;22;20015;-67
2022/08/15 08:29:30;;;;;;;7.85;7.05;;;;;;;43.60;14.70;100035.59;6203700;22;20020;-67
2022/08/15 08:32:26;;;;;;;8.27;7.15;;;;;;;44.23;14.43;100039.34;6203439;22;20023;-66
2022/08/15 08:35:10;;;;;;;7.40;6.65;;;;;;;43.90;14.62;100030.38;6203790;22;20070;-66
2022/08/15 08:37:47;;;;;;;7.60;6.90;;;;;;;43.08;14.67;100034.28;6203190;22;20091;-67
2022/08/15 08:44:08;;;;;;;7.00;6.40;;;;;;;40.48;15.92;100022.16;6053922;23;20100;-66
2022/08/15 08:47:09;;;;;;;8.70;5.53;;;;;;;39.40;16.25;100015.84;6078621;23;20025;-65
2022/08/15 08:49:53;;;;;;;10.77;5.93;;;;;;;38.89;16.85;100014.47;6054122;23;20013;-65
2022/08/15 08:52:17;;;;;;;6.00;5.10;;;;;;;38.90;16.95;100016.16;6029741;23;20025;-66
2022/08/15 08:55:04;;;;;;;9.57;5.82;;;;;;;38.37;18.00;100013.00;6087724;23;20021;-66
2022/08/15 08:57:43;;;;;;;10.95;5.38;;;;;;;38.46;17.49;100020.50;6060900;23;20026;-66
2022/08/15 09:00:14;;;;;;;6.47;5.72;;;;;;;39.04;17.27;100020.00;6078094;23;20458;-65
2022/08/15 09:02:47;;;;;;;10.25;5.78;;;;;;;40.12;17.12;100018.88;6053863;23;20104;-67
2022/08/15 09:05:17;;;;;;;7.15;6.20;;;;;;;42.41;15.69;100036.81;6078154;23;20357;-68
2022/08/15 09:07:48;;;;;;;8.80;7.90;;;;;;;43.62;14.39;100030.50;6053760;23;20028;-67
2022/08/15 09:10:22;;;;;;;8.00;7.30;;;;;;;44.33;13.75;100027.81;6078147;23;20103;-67
2022/08/15 09:15:36;;;;;;;9.30;8.43;;;;;;;44.32;13.24;100040.19;6075687;23;20018;-67
2022/08/15 09:18:08;;;;;;;7.50;6.80;;;;;;;43.21;13.94;100019.44;6171634;22;20023;-67
2022/08/15 09:20:37;;;;;;;9.38;6.93;;;;;;;43.90;13.47;100025.59;6229340;22;20048;-67
2022/08/15 09:23:06;;;;;;;8.02;7.07;;;;;;;44.69;12.60;100036.06;6202120;22;20042;-68
2022/08/15 09:25:36;;;;;;;8.95;7.28;;;;;;;44.62;12.45;100028.09;6229443;22;20053;-66
2022/08/15 09:28:10;;;;;;;8.73;7.88;;;;;;;45.51;12.05;100016.34;6152237;22;20020;-66
2022/08/15 09:30:35;;;;;;;8.65;7.95;;;;;;;45.73;11.70;100020.13;6229602;22;20011;-66
2022/08/15 09:33:13;;;;;;;8.30;7.60;;;;;;;46.00;11.89;100016.94;6177582;22;20024;-65
2022/08/15 09:35:56;;;;;;;9.57;8.68;;;;;;;45.28;11.85;100017.66;6229770;22;20015;-66
2022/08/15 09:38:33;;;;;;;9.00;8.13;;;;;;;44.49;12.10;100012.16;6202731;22;20016;-66
2022/08/15 09:41:20;;;;;;;11.23;7.60;;;;;;;45.07;11.47;100008.16;6229881;22;20065;-67
2022/08/15 09:44:00;;;;;;;9.60;8.25;;;;;;;45.76;11.61;100008.19;6229654;22;20476;-67
2022/08/15 09:46:31;;;;;;;11.07;8.93;;;;;;;45.45;12.24;100003.56;6229527;22;20016;-65
2022/08/15 09:49:18;;;;;;;16.88;15.25;;;;;;;45.38;11.75;100006.03;6202935;22;20023;-66
2022/08/15 09:51:55;;;;;;;10.57;9.52;;;;;;;45.69;11.32;100011.53;6202614;22;20414;-67
2022/08/15 09:54:24;;;;;;;9.48;8.57;;;;;;;45.36;11.35;100007.56;6177231;22;20020;-68
2022/08/15 09:57:10;;;;;;;11.20;10.10;;;;;;;45.24;10.85;99999.78;6202686;22;20016;-67
2022/08/15 09:59:36;;;;;;;9.18;8.45;;;;;;;45.35;11.34;100000.28;6177130;22;20019;-67
2022/08/15 10:02:22;;;;;;;9.52;8.63;;;;;;;46.61;10.87;100018.38;6177174;22;20012;-68
2022/08/15 10:04:47;;;;;;;10.50;8.55;;;;;;;46.13;10.54;99993.34;6176831;22;20363;-65
2022/08/15 10:07:32;;;;;;;10.52;9.65;;;;;;;46.18;10.58;99995.97;6176759;22;20015;-66
2022/08/15 10:10:00;;;;;;;10.55;9.70;;;;;;;46.80;10.48;100000.19;6202215;22;20102;-66
2022/08/15 10:12:25;;;;;;;10.30;9.32;;;;;;;46.60;10.21;99993.31;6202324;22;20045;-66
2022/08/15 10:14:53;;;;;;;10.05;9.25;;;;;;;46.25;10.62;99999.09;6202272;22;20026;-66
2022/08/15 10:17:37;;;;;;;9.82;8.80;;;;;;;44.97;11.10;99995.25;6202272;22;20022;-66
2022/08/15 10:20:17;;;;;;;9.18;8.43;;;;;;;44.37;11.82;99989.47;6176168;22;20011;-67
2022/08/15 10:22:54;;;;;;;9.43;8.48;;;;;;;43.95;11.85;99986.09;6201110;22;20022;-65
2022/08/15 10:25:43;;;;;;;9.02;8.25;;;;;;;43.83;12.79;99983.06;6228107;22;20019;-66
2022/08/15 10:28:11;;;;;;;9.75;7.60;;;;;;;42.20;13.39;99985.94;6228292;22;20020;-66
2022/08/15 10:30:46;;;;;;;8.18;7.38;;;;;;;40.22;14.37;99980.50;6201164;22;20207;-65
2022/08/15 10:33:36;;;;;;;8.35;7.50;;;;;;;38.37;16.43;99983.22;6228449;22;20020;-65
2022/08/15 10:36:28;;;;;;;11.57;8.32;;;;;;;36.44;18.11;99970.25;6228531;22;20023;-65
2022/08/15 10:39:08;;;;;;;11.32;7.88;;;;;;;35.35;19.18;99973.63;6182281;22;20016;-66
2022/08/15 10:42:12;;;;;;;13.43;8.32;;;;;;;34.52;20.30;99972.97;6186996;22;20099;-64
2022/08/15 10:44:59;;;;;;;11.90;8.90;;;;;;;33.62;21.38;99970.53;6195305;22;20023;-68
2022/08/15 10:47:43;;;;;;;13.23;10.10;;;;;;;33.10;22.72;99968.78;6201933;22;20030;-68
2022/08/15 10:50:09;;;;;;;13.15;9.32;;;;;;;32.65;23.78;99954.91;6177169;22;20351;-69
2022/08/15 10:53:16;;;;;;;17.08;11.95;;;;;;;32.34;23.42;99955.38;6229245;22;20062;-68
2022/08/15 10:55:41;;;;;;;22.67;13.50;;;;;;;31.63;24.78;99946.31;6177196;22;20020;-67
2022/08/15 10:58:12;;;;;;;15.68;12.82;;;;;;;31.48;24.73;99961.63;6202362;22;20043;-66
2022/08/15 11:00:46;;;;;;;25.48;16.45;;;;;;;31.32;24.89;99952.13;6229273;22;20024;-74
2022/08/15 11:03:38;;;;;;;24.63;16.88;;;;;;;31.03;24.91;99964.84;6177012;22;20035;-66
2022/08/15 11:06:06;;;;;;;17.30;12.82;;;;;;;30.68;25.71;99968.31;6229006;22;20034;-67
2022/08/15 11:08:34;;;;;;;15.55;12.23;;;;;;;30.35;26.50;99947.78;6201863;22;20098;-67
2022/08/15 11:11:05;;;;;;;17.95;13.30;;;;;;;30.14;26.46;99952.66;6202052;22;20525;-68
2022/08/15 11:13:31;;;;;;;25.95;16.20;;;;;;;29.92;26.46;99946.72;6202049;22;20015;-66
2022/08/15 11:15:58;;;;;;;32.50;24.02;;;;;;;30.05;26.28;99953.19;6228877;22;20490;-68
2022/08/15 11:18:35;;;;;;;44.33;29.58;;;;;;;30.03;26.71;99960.81;6202248;22;20020;-67
2022/08/15 11:21:26;;;;;;;45.38;32.58;;;;;;;29.96;26.50;99961.75;6202125;22;20472;-70
2022/08/15 11:23:55;;;;;;;41.63;30.33;;;;;;;29.79;26.85;99962.53;6201757;22;20350;-69
2022/08/15 11:26:28;;;;;;;43.92;27.95;;;;;;;29.59;27.32;99960.81;6176754;22;20510;-66
2022/08/15 11:29:16;;;;;;;42.30;31.85;;;;;;;29.57;27.33;99951.94;6176934;22;20035;-70
2022/08/15 11:31:53;;;;;;;50.67;34.63;;;;;;;29.57;27.22;99962.94;6176737;22;20098;-65
2022/08/15 11:34:27;;;;;;;48.67;31.63;;;;;;;29.53;27.94;99955.38;6202150;22;20115;-69
2022/08/15 11:36:57;;;;;;;42.47;29.33;;;;;;;29.49;28.84;99957.72;6176937;22;20320;-68
2022/08/15 11:39:25;;;;;;;34.90;25.95;;;;;;;29.57;28.56;99962.94;6229969;22;20094;-69
2022/08/15 11:41:58;;;;;;;35.53;26.30;;;;;;;29.60;27.33;99958.91;6152345;22;20011;-68
2022/08/15 11:44:28;;;;;;;37.10;26.33;;;;;;;29.45;27.65;99952.94;6230574;22;20046;-67
2022/08/15 11:46:53;;;;;;;40.50;25.63;;;;;;;29.33;27.43;99952.78;6229430;22;20015;-69
2022/08/15 11:49:33;;;;;;;44.00;30.10;;;;;;;29.37;28.21;99955.91;6202668;22;20016;-70